This is the latest recevied weather packets stored in our database for station/object SV4JYD-14. If no packets are shown the sender has not sent any weather packets the latest 1 day(s).
| Time | Temp. | Humidity | Pressure | Rain* | Wind** | Luminosity | Snow |
|---|---|---|---|---|---|---|---|
| 1778118448 | 13.33° C | 69% | 1017 hPa | 0 mm | - | - | - |
| 1778117548 | 13.33° C | 69% | 1017 hPa | 0 mm | - | - | - |
| 1778116648 | 13.33° C | 68% | 1018 hPa | 0 mm | - | - | - |
| 1778115747 | 13.33° C | 65% | 1017 hPa | 0 mm | - | - | - |
| 1778114847 | 13.33° C | 64% | 1017 hPa | 0 mm | - | - | - |
| 1778113947 | 13.89° C | 63% | 1017 hPa | 0 mm | - | - | - |
| 1778113047 | 13.89° C | 62% | 1018 hPa | 0 mm | - | - | - |
| 1778109446 | 13.89° C | 62% | 1018 hPa | 0 mm | - | - | - |
| 1778106745 | 14.44° C | 63% | 1017 hPa | 0 mm | - | - | - |
| 1778103144 | 14.44° C | 54% | 1018 hPa | 0 mm | - | - | - |
| 1778099543 | 15° C | 54% | 1017 hPa | 0 mm | - | - | - |
| 1778095942 | 16.11° C | 55% | 1017 hPa | 0 mm | - | - | - |
| 1778088739 | 18.89° C | 50% | 1016 hPa | 0 mm | - | - | - |
| 1778086938 | 20.56° C | 45% | 1016 hPa | 0 mm | - | - | - |
| 1778086038 | 21.67° C | 37% | 1016 hPa | 0 mm | - | - | - |
| 1778083337 | 22.22° C | 35% | 1016 hPa | 0 mm | - | - | - |
| 1778078835 | 22.22° C | 46% | 1016 hPa | 0 mm | - | - | - |
| 1778075234 | 24.44° C | 36% | 1016 hPa | 0 mm | - | - | - |
| 1778072533 | 23.33° C | 38% | 1016 hPa | 0 mm | - | - | - |
| 1778068932 | 20.56° C | 50% | 1017 hPa | 0 mm | - | - | - |
| 1778066231 | 21.11° C | 45% | 1017 hPa | 0 mm | - | - | - |
| 1778064430 | 19.44° C | 42% | 1017 hPa | 0 mm | - | - | - |
| 1778062629 | 19.44° C | 42% | 1018 hPa | 0 mm | - | - | - |
| 1778061729 | 20° C | 50% | 1017 hPa | 0 mm | - | - | - |
| 1778060828 | 20° C | 49% | 1017 hPa | 0 mm | - | - | - |
* Rain latest hour (hover to see other rain measurements)
** Current wind speed in m/s (hover to see current wind gust speed)